Time;durP1;ratioP1;P1;durP2;ratioP2;P2;SDS_P1;SDS_P2;PMS_P1;PMS_P2;Temp;Humidity;BMP_temperature;BMP_pressure;BME280_temperature;BME280_humidity;BME280_pressure;Samples;Min_cycle;Max_cycle;Signal;HPM_P1;HPM_P2
2022/01/09 00:00:11;;;;;;;1.10;1.00;;;;;;;;;;5020222;28;20921;-55
2022/01/09 00:02:37;;;;;;;1.17;1.10;;;;;;;;;;5029668;28;20220;-56
2022/01/09 00:05:03;;;;;;;1.20;1.10;;;;;;;;;;5025407;28;20231;-56
2022/01/09 00:07:29;;;;;;;2.10;0.97;;;;;;;;;;5018770;28;20219;-56
2022/01/09 00:09:56;;;;;;;1.70;1.10;;;;;;;;;;5014639;28;20308;-56
2022/01/09 00:12:23;;;;;;;1.47;1.20;;;;;;;;;;5002924;28;20249;-56
2022/01/09 00:14:49;;;;;;;1.10;1.00;;;;;;;;;;5002673;28;20286;-55
2022/01/09 00:17:15;;;;;;;1.13;1.10;;;;;;;;;;5018251;28;20708;-56
2022/01/09 00:19:40;;;;;;;1.20;1.10;;;;;;;;;;5011397;28;20689;-55
2022/01/09 00:22:07;;;;;;;1.93;1.03;;;;;;;;;;5009706;28;20319;-55
2022/01/09 00:24:34;;;;;;;1.23;1.13;;;;;;;;;;5020709;28;20263;-56
2022/01/09 00:27:00;;;;;;;0.93;0.93;;;;;;;;;;5001001;28;20299;-55
2022/01/09 00:29:26;;;;;;;0.83;0.83;;;;;;;;;;5000532;28;20235;-55
2022/01/09 00:31:52;;;;;;;1.23;1.20;;;;;;;;;;5000888;28;20283;-55
2022/01/09 00:34:18;;;;;;;0.90;0.90;;;;;;;;;;4998874;28;20606;-55
2022/01/09 00:36:44;;;;;;;0.90;0.90;;;;;;;;;;5000545;28;20229;-55
2022/01/09 00:39:10;;;;;;;1.20;0.90;;;;;;;;;;5000912;28;20228;-56
2022/01/09 00:41:36;;;;;;;1.00;0.90;;;;;;;;;;4994334;28;20383;-56
2022/01/09 00:44:02;;;;;;;1.10;1.00;;;;;;;;;;4995125;28;20248;-55
2022/01/09 00:46:28;;;;;;;1.00;1.00;;;;;;;;;;4998753;28;20260;-57
2022/01/09 00:48:54;;;;;;;1.33;1.07;;;;;;;;;;5016714;28;20654;-56
2022/01/09 00:51:20;;;;;;;0.83;0.83;;;;;;;;;;5002354;28;20237;-56
2022/01/09 00:53:46;;;;;;;1.00;1.00;;;;;;;;;;4984109;28;20832;-55
2022/01/09 00:56:12;;;;;;;1.10;1.00;;;;;;;;;;5001382;28;20275;-55
2022/01/09 00:58:38;;;;;;;0.97;0.87;;;;;;;;;;4992614;28;20232;-55
2022/01/09 01:01:03;;;;;;;1.20;1.00;;;;;;;;;;4988990;28;20279;-56
2022/01/09 01:03:30;;;;;;;0.80;0.80;;;;;;;;;;4986580;28;20236;-55
2022/01/09 01:05:56;;;;;;;0.90;0.90;;;;;;;;;;4981184;28;20302;-55
2022/01/09 01:08:21;;;;;;;0.97;0.97;;;;;;;;;;4992164;28;20235;-56
2022/01/09 01:10:47;;;;;;;0.97;0.97;;;;;;;;;;4993718;28;20228;-56
2022/01/09 01:13:13;;;;;;;0.83;0.83;;;;;;;;;;4995393;28;20715;-55
2022/01/09 01:15:39;;;;;;;0.90;0.90;;;;;;;;;;5004913;28;20229;-56
2022/01/09 01:18:05;;;;;;;1.07;0.97;;;;;;;;;;5016930;28;20906;-56
2022/01/09 01:20:32;;;;;;;1.47;1.10;;;;;;;;;;5003099;28;20236;-56
2022/01/09 01:22:59;;;;;;;1.67;1.00;;;;;;;;;;4991549;28;20260;-55
2022/01/09 01:25:25;;;;;;;1.93;1.57;;;;;;;;;;5002047;28;20240;-55
2022/01/09 01:27:51;;;;;;;1.33;1.23;;;;;;;;;;4997851;28;20795;-55
2022/01/09 01:30:17;;;;;;;1.57;1.40;;;;;;;;;;4996028;28;20330;-56
2022/01/09 01:32:43;;;;;;;1.40;1.30;;;;;;;;;;5005143;28;20414;-56
2022/01/09 01:35:09;;;;;;;1.67;1.50;;;;;;;;;;4999574;28;20235;-56
2022/01/09 01:37:38;;;;;;;1.47;1.37;;;;;;;;;;4994892;28;20228;-56
2022/01/09 01:40:05;;;;;;;1.80;1.70;;;;;;;;;;4998168;28;20248;-56
2022/01/09 01:42:31;;;;;;;1.80;1.40;;;;;;;;;;5000113;28;20235;-56
2022/01/09 01:44:57;;;;;;;1.77;1.50;;;;;;;;;;4996469;28;20829;-56
2022/01/09 01:47:23;;;;;;;3.10;1.70;;;;;;;;;;5001778;28;20235;-56
2022/01/09 01:49:49;;;;;;;4.23;2.10;;;;;;;;;;4998616;28;20232;-56
2022/01/09 01:52:16;;;;;;;2.53;2.33;;;;;;;;;;4990617;28;20363;-57
2022/01/09 01:54:43;;;;;;;2.40;2.20;;;;;;;;;;5000884;28;20231;-56
2022/01/09 01:57:09;;;;;;;4.70;2.50;;;;;;;;;;4990602;28;20668;-56
2022/01/09 01:59:35;;;;;;;2.70;2.50;;;;;;;;;;4985858;28;20293;-56
2022/01/09 02:02:01;;;;;;;3.27;2.50;;;;;;;;;;4988616;28;20334;-56
2022/01/09 02:04:27;;;;;;;3.97;2.67;;;;;;;;;;4977991;28;20618;-56
2022/01/09 02:06:54;;;;;;;3.93;2.60;;;;;;;;;;4993117;28;20258;-56
2022/01/09 02:09:20;;;;;;;2.67;2.20;;;;;;;;;;4990977;28;20788;-56
2022/01/09 02:11:46;;;;;;;2.53;2.00;;;;;;;;;;4986170;28;20298;-56
2022/01/09 02:14:12;;;;;;;1.97;1.70;;;;;;;;;;4992458;28;20246;-56
2022/01/09 02:16:42;;;;;;;1.73;1.60;;;;;;;;;;5000979;28;20224;-55
2022/01/09 02:19:11;;;;;;;2.80;1.70;;;;;;;;;;5013926;28;20647;-55
2022/01/09 02:21:38;;;;;;;1.87;1.30;;;;;;;;;;4991553;28;20236;-56
2022/01/09 02:24:04;;;;;;;1.30;1.20;;;;;;;;;;4962902;28;20332;-56
2022/01/09 02:26:30;;;;;;;2.07;1.40;;;;;;;;;;4989282;28;20241;-56
2022/01/09 02:28:56;;;;;;;1.40;1.20;;;;;;;;;;4990490;28;20251;-56
2022/01/09 02:31:22;;;;;;;1.93;1.23;;;;;;;;;;4986290;28;20247;-55
2022/01/09 02:33:48;;;;;;;1.30;1.20;;;;;;;;;;4996329;28;20760;-55
2022/01/09 02:36:14;;;;;;;2.40;1.30;;;;;;;;;;4988687;28;20255;-56
2022/01/09 02:38:40;;;;;;;3.00;1.20;;;;;;;;;;5000607;28;20244;-56
2022/01/09 02:41:06;;;;;;;3.17;1.30;;;;;;;;;;4987769;28;20948;-55
2022/01/09 02:43:32;;;;;;;3.57;1.30;;;;;;;;;;4999326;28;20633;-55
2022/01/09 02:46:10;;;;;;;3.60;1.67;;;;;;;;;;4997616;28;20336;-55
2022/01/09 02:48:38;;;;;;;4.10;1.60;;;;;;;;;;4999756;28;20224;-55
2022/01/09 02:51:14;;;;;;;5.47;1.83;;;;;;;;;;4984873;28;20277;-55
2022/01/09 02:53:40;;;;;;;6.80;2.33;;;;;;;;;;5001833;28;20232;-55
2022/01/09 02:56:07;;;;;;;5.97;1.93;;;;;;;;;;5000560;28;20248;-55
2022/01/09 02:58:33;;;;;;;8.07;2.00;;;;;;;;;;4991565;28;20351;-55
2022/01/09 03:01:00;;;;;;;5.93;2.23;;;;;;;;;;4981394;28;20264;-55
2022/01/09 03:03:26;;;;;;;6.53;2.30;;;;;;;;;;4988949;28;20236;-55
2022/01/09 03:05:51;;;;;;;10.73;3.17;;;;;;;;;;4986995;28;20899;-55
2022/01/09 03:08:17;;;;;;;10.80;3.17;;;;;;;;;;4983461;28;20289;-55
2022/01/09 03:10:43;;;;;;;10.73;3.03;;;;;;;;;;4985347;28;22105;-55
2022/01/09 03:13:10;;;;;;;14.80;3.20;;;;;;;;;;4984751;28;20248;-55
2022/01/09 03:15:36;;;;;;;14.33;3.13;;;;;;;;;;4985167;28;20232;-55
2022/01/09 03:18:02;;;;;;;11.07;3.13;;;;;;;;;;4997536;28;21384;-55
2022/01/09 03:20:28;;;;;;;9.93;2.80;;;;;;;;;;4988330;28;20236;-55
2022/01/09 03:22:56;;;;;;;12.00;3.40;;;;;;;;;;4991369;28;20228;-55
2022/01/09 03:25:23;;;;;;;9.30;3.23;;;;;;;;;;5000402;28;20232;-55
2022/01/09 03:27:49;;;;;;;12.03;3.07;;;;;;;;;;4996922;28;20315;-55
2022/01/09 03:30:15;;;;;;;14.57;3.63;;;;;;;;;;5000636;28;20293;-55
2022/01/09 03:32:41;;;;;;;12.10;3.47;;;;;;;;;;5000601;28;20330;-55
2022/01/09 03:35:08;;;;;;;12.70;3.17;;;;;;;;;;4993560;28;20240;-55
2022/01/09 03:37:34;;;;;;;12.27;3.13;;;;;;;;;;4981555;28;20992;-56
2022/01/09 03:40:00;;;;;;;14.33;3.63;;;;;;;;;;5004635;28;21148;-56
2022/01/09 03:42:26;;;;;;;13.70;3.20;;;;;;;;;;4989150;28;20228;-55
2022/01/09 03:44:52;;;;;;;11.93;3.47;;;;;;;;;;4993417;28;20331;-55
2022/01/09 03:47:18;;;;;;;11.87;3.47;;;;;;;;;;4996961;28;20681;-56
2022/01/09 03:49:44;;;;;;;9.83;3.37;;;;;;;;;;4988105;28;20793;-55
2022/01/09 03:52:10;;;;;;;28.43;6.60;;;;;;;;;;4999233;28;20374;-55
2022/01/09 03:54:38;;;;;;;13.10;3.83;;;;;;;;;;4986633;28;20738;-55
2022/01/09 03:57:04;;;;;;;22.70;4.77;;;;;;;;;;4983905;28;20266;-55
2022/01/09 03:59:30;;;;;;;18.67;4.97;;;;;;;;;;5000189;28;20236;-55
2022/01/09 04:01:56;;;;;;;15.77;4.50;;;;;;;;;;4986358;28;20235;-55
2022/01/09 04:04:22;;;;;;;19.33;5.23;;;;;;;;;;4984040;28;20241;-55
2022/01/09 04:06:50;;;;;;;24.17;5.70;;;;;;;;;;4974284;28;20713;-54
2022/01/09 04:09:26;;;;;;;23.53;6.50;;;;;;;;;;4986832;28;20232;-55
2022/01/09 04:11:55;;;;;;;31.13;6.70;;;;;;;;;;4987841;28;20239;-55
2022/01/09 04:14:21;;;;;;;26.00;5.77;;;;;;;;;;4985145;28;20228;-55
2022/01/09 04:16:47;;;;;;;24.77;5.70;;;;;;;;;;4989389;28;20745;-55
2022/01/09 04:19:13;;;;;;;21.43;6.03;;;;;;;;;;4975343;28;20615;-56
2022/01/09 04:21:42;;;;;;;27.20;5.93;;;;;;;;;;4992424;28;21496;-55
2022/01/09 04:24:09;;;;;;;23.60;5.43;;;;;;;;;;4972060;28;20350;-55
2022/01/09 04:26:35;;;;;;;28.93;6.20;;;;;;;;;;4988339;28;20255;-55
2022/01/09 04:29:01;;;;;;;24.87;5.90;;;;;;;;;;4989512;28;20240;-55
2022/01/09 04:31:26;;;;;;;28.63;5.90;;;;;;;;;;4992952;28;21865;-55
2022/01/09 04:33:52;;;;;;;25.10;5.80;;;;;;;;;;4996007;28;20231;-56
2022/01/09 04:36:18;;;;;;;28.03;6.33;;;;;;;;;;5012017;28;20287;-57
2022/01/09 04:38:44;;;;;;;25.50;5.30;;;;;;;;;;5004117;28;20270;-55
2022/01/09 04:41:10;;;;;;;28.17;5.63;;;;;;;;;;4987242;28;20232;-55
2022/01/09 04:43:36;;;;;;;24.40;5.10;;;;;;;;;;4994780;28;20224;-55
2022/01/09 04:46:02;;;;;;;27.00;5.70;;;;;;;;;;4978864;28;20247;-55
2022/01/09 04:48:28;;;;;;;22.57;5.30;;;;;;;;;;4984942;28;20273;-55
2022/01/09 04:50:56;;;;;;;19.20;5.20;;;;;;;;;;4998508;28;20717;-55
2022/01/09 04:53:22;;;;;;;18.33;5.17;;;;;;;;;;4992051;28;20739;-55
2022/01/09 04:55:50;;;;;;;19.37;5.13;;;;;;;;;;5004507;28;20591;-55
2022/01/09 04:58:16;;;;;;;20.60;5.50;;;;;;;;;;4994842;28;20236;-55
2022/01/09 05:00:42;;;;;;;16.43;5.13;;;;;;;;;;4995401;28;21117;-55
2022/01/09 05:03:09;;;;;;;22.30;5.20;;;;;;;;;;4990435;28;20328;-55
2022/01/09 05:05:35;;;;;;;19.60;4.90;;;;;;;;;;4987924;28;20853;-55
2022/01/09 05:08:01;;;;;;;21.57;4.97;;;;;;;;;;4998163;28;20306;-55
2022/01/09 05:10:27;;;;;;;24.57;5.17;;;;;;;;;;4992666;28;20237;-55
2022/01/09 05:12:53;;;;;;;15.67;4.63;;;;;;;;;;4991605;28;20643;-55
2022/01/09 05:15:20;;;;;;;18.67;4.93;;;;;;;;;;5005548;28;20320;-55
2022/01/09 05:17:46;;;;;;;21.03;4.43;;;;;;;;;;4996205;28;21029;-55
2022/01/09 05:20:12;;;;;;;19.63;4.43;;;;;;;;;;4990499;28;20320;-56
2022/01/09 05:22:38;;;;;;;22.07;4.90;;;;;;;;;;4995915;28;20582;-55
2022/01/09 05:25:06;;;;;;;21.67;4.83;;;;;;;;;;4991883;28;20236;-55
2022/01/09 05:27:32;;;;;;;17.03;4.37;;;;;;;;;;4987735;28;21908;-55
2022/01/09 05:29:58;;;;;;;21.37;4.07;;;;;;;;;;4974265;28;20553;-55
2022/01/09 05:32:24;;;;;;;19.57;4.33;;;;;;;;;;4988780;28;20250;-55
2022/01/09 05:34:50;;;;;;;23.30;5.43;;;;;;;;;;4976097;28;20248;-55
2022/01/09 05:37:16;;;;;;;15.07;4.10;;;;;;;;;;4989235;28;20530;-54
2022/01/09 05:39:42;;;;;;;14.60;4.17;;;;;;;;;;4989868;28;20239;-55
2022/01/09 05:42:08;;;;;;;20.37;5.03;;;;;;;;;;4994650;28;20243;-55
2022/01/09 05:44:34;;;;;;;16.20;4.43;;;;;;;;;;4987342;28;20321;-55
2022/01/09 05:47:00;;;;;;;19.20;4.10;;;;;;;;;;4997526;28;20237;-55
2022/01/09 05:49:26;;;;;;;19.70;4.17;;;;;;;;;;4989293;28;20224;-55
2022/01/09 05:51:52;;;;;;;13.27;3.97;;;;;;;;;;4996462;28;20293;-55
2022/01/09 05:54:18;;;;;;;19.10;3.80;;;;;;;;;;5000903;28;20283;-54
2022/01/09 05:56:44;;;;;;;17.47;3.93;;;;;;;;;;5010688;28;20228;-55
2022/01/09 05:59:10;;;;;;;14.73;4.77;;;;;;;;;;5000127;28;20235;-55
2022/01/09 06:01:36;;;;;;;13.97;3.50;;;;;;;;;;4997197;28;21093;-55
2022/01/09 06:04:03;;;;;;;20.20;4.37;;;;;;;;;;4996037;28;20239;-55
2022/01/09 06:06:29;;;;;;;14.03;4.20;;;;;;;;;;4990848;28;20634;-54
2022/01/09 06:08:55;;;;;;;19.53;3.60;;;;;;;;;;4994695;28;20374;-55
2022/01/09 06:11:21;;;;;;;10.80;3.70;;;;;;;;;;4988034;28;20324;-54
2022/01/09 06:13:47;;;;;;;19.37;3.77;;;;;;;;;;4992573;28;20246;-54
2022/01/09 06:16:13;;;;;;;13.87;3.67;;;;;;;;;;4998903;28;20232;-54
2022/01/09 06:18:39;;;;;;;16.87;4.43;;;;;;;;;;5001237;28;20228;-54
2022/01/09 06:21:05;;;;;;;19.00;3.67;;;;;;;;;;4989916;28;20943;-55
2022/01/09 06:23:31;;;;;;;17.27;3.57;;;;;;;;;;4988542;28;20796;-55
2022/01/09 06:25:57;;;;;;;14.00;3.63;;;;;;;;;;4991128;28;20232;-55
2022/01/09 06:28:23;;;;;;;16.07;4.00;;;;;;;;;;4995494;28;20235;-55
2022/01/09 06:30:49;;;;;;;17.07;3.60;;;;;;;;;;4986249;28;20233;-55
2022/01/09 06:33:15;;;;;;;13.70;4.03;;;;;;;;;;4987008;28;20293;-55
2022/01/09 06:35:41;;;;;;;14.73;3.77;;;;;;;;;;4997779;28;20878;-55
2022/01/09 06:38:07;;;;;;;15.63;3.67;;;;;;;;;;4995420;28;20229;-55
2022/01/09 06:40:33;;;;;;;12.07;3.67;;;;;;;;;;5004456;28;20234;-55
2022/01/09 06:42:59;;;;;;;14.63;3.47;;;;;;;;;;5007942;28;20231;-55
2022/01/09 06:45:26;;;;;;;18.60;3.93;;;;;;;;;;4984880;28;21626;-55
2022/01/09 06:47:52;;;;;;;23.47;4.30;;;;;;;;;;5007225;28;20565;-55
2022/01/09 06:50:18;;;;;;;12.07;3.40;;;;;;;;;;4995445;28;20251;-55
2022/01/09 06:52:44;;;;;;;12.87;3.77;;;;;;;;;;4989878;28;20230;-55
2022/01/09 06:55:11;;;;;;;13.03;3.90;;;;;;;;;;4999910;28;20648;-55
2022/01/09 06:57:37;;;;;;;17.07;3.67;;;;;;;;;;5000639;28;20276;-55
2022/01/09 07:00:03;;;;;;;14.17;4.00;;;;;;;;;;4980202;28;20884;-55
2022/01/09 07:02:29;;;;;;;15.97;3.90;;;;;;;;;;4995468;28;20229;-55
2022/01/09 07:04:55;;;;;;;18.10;3.77;;;;;;;;;;4978853;28;20294;-54
2022/01/09 07:07:21;;;;;;;9.93;3.27;;;;;;;;;;4985793;28;20231;-55
2022/01/09 07:09:47;;;;;;;13.73;3.77;;;;;;;;;;4984237;28;20237;-54
2022/01/09 07:12:13;;;;;;;14.70;3.47;;;;;;;;;;5001019;28;20227;-55
2022/01/09 07:14:39;;;;;;;13.87;3.93;;;;;;;;;;5004959;28;20228;-55
2022/01/09 07:17:05;;;;;;;12.23;3.70;;;;;;;;;;4994382;28;20234;-55
2022/01/09 07:19:32;;;;;;;12.83;3.93;;;;;;;;;;4999464;28;20235;-55
2022/01/09 07:21:57;;;;;;;12.73;3.97;;;;;;;;;;4990403;28;20331;-55
2022/01/09 07:24:23;;;;;;;16.00;3.57;;;;;;;;;;4992245;28;20244;-55
2022/01/09 07:26:49;;;;;;;11.23;3.47;;;;;;;;;;4996987;28;20323;-55
2022/01/09 07:29:15;;;;;;;17.03;3.90;;;;;;;;;;4997458;28;21809;-55
2022/01/09 07:31:41;;;;;;;12.67;3.80;;;;;;;;;;4988707;28;20503;-55
2022/01/09 07:34:07;;;;;;;13.60;3.77;;;;;;;;;;4995568;28;20240;-55
2022/01/09 07:36:33;;;;;;;9.80;4.13;;;;;;;;;;4988737;28;20282;-55
2022/01/09 07:38:59;;;;;;;15.87;4.90;;;;;;;;;;5000074;28;20221;-55
2022/01/09 07:41:25;;;;;;;15.20;4.37;;;;;;;;;;5001156;28;20780;-55
2022/01/09 07:43:51;;;;;;;16.07;4.17;;;;;;;;;;4998841;28;20325;-55
2022/01/09 07:46:17;;;;;;;14.47;3.50;;;;;;;;;;4994156;28;21642;-55
2022/01/09 07:48:43;;;;;;;14.70;4.30;;;;;;;;;;5002809;28;20239;-55
2022/01/09 07:51:10;;;;;;;17.70;4.00;;;;;;;;;;4995710;28;20301;-57
2022/01/09 07:53:36;;;;;;;16.57;3.90;;;;;;;;;;5000286;28;20340;-55
2022/01/09 07:56:02;;;;;;;13.07;3.93;;;;;;;;;;5004811;28;20242;-55
2022/01/09 07:58:28;;;;;;;10.87;3.47;;;;;;;;;;5004605;28;20606;-55
2022/01/09 08:00:54;;;;;;;12.33;3.43;;;;;;;;;;5004773;28;20244;-55
2022/01/09 08:03:20;;;;;;;10.30;3.00;;;;;;;;;;5003261;28;20306;-56
2022/01/09 08:05:46;;;;;;;8.83;2.90;;;;;;;;;;5005684;28;20239;-56
2022/01/09 08:08:12;;;;;;;10.13;2.93;;;;;;;;;;5003084;28;20348;-56
2022/01/09 08:10:38;;;;;;;13.43;3.40;;;;;;;;;;5003237;28;20243;-55
2022/01/09 08:13:04;;;;;;;12.13;3.17;;;;;;;;;;5002375;28;20236;-56
2022/01/09 08:15:30;;;;;;;14.83;3.60;;;;;;;;;;5011409;28;20768;-55
2022/01/09 08:17:56;;;;;;;7.03;2.83;;;;;;;;;;5021230;28;20229;-55
2022/01/09 08:20:22;;;;;;;12.70;3.27;;;;;;;;;;5007149;28;20568;-56
2022/01/09 08:22:48;;;;;;;7.83;3.27;;;;;;;;;;5009731;28;20244;-56
2022/01/09 08:25:15;;;;;;;9.43;3.60;;;;;;;;;;5003471;28;20370;-56
2022/01/09 08:27:42;;;;;;;10.57;3.97;;;;;;;;;;5010636;28;20292;-56
2022/01/09 08:30:08;;;;;;;11.93;4.30;;;;;;;;;;5006261;28;20240;-56
2022/01/09 08:32:34;;;;;;;16.97;4.33;;;;;;;;;;5010914;28;20266;-56
2022/01/09 08:35:00;;;;;;;13.87;4.37;;;;;;;;;;5004812;28;20374;-56
2022/01/09 08:37:26;;;;;;;15.43;4.73;;;;;;;;;;4998089;28;20243;-56
2022/01/09 08:39:52;;;;;;;16.53;4.93;;;;;;;;;;5011560;28;20228;-56
2022/01/09 08:42:18;;;;;;;15.60;4.70;;;;;;;;;;4996530;28;20333;-56
2022/01/09 08:44:44;;;;;;;8.27;4.10;;;;;;;;;;4987565;28;20798;-56
2022/01/09 08:47:10;;;;;;;10.50;3.70;;;;;;;;;;4999181;28;20632;-56
2022/01/09 08:49:36;;;;;;;15.00;4.50;;;;;;;;;;5017541;28;20318;-56
2022/01/09 08:52:02;;;;;;;12.73;4.50;;;;;;;;;;5001641;28;20733;-56
2022/01/09 08:54:29;;;;;;;13.53;4.53;;;;;;;;;;5002340;28;21418;-56
2022/01/09 08:56:55;;;;;;;14.13;4.40;;;;;;;;;;5001010;28;20241;-55
2022/01/09 08:59:21;;;;;;;13.73;5.17;;;;;;;;;;5020723;28;20571;-56
2022/01/09 09:01:47;;;;;;;13.83;5.00;;;;;;;;;;5026816;28;20254;-56
2022/01/09 09:04:13;;;;;;;12.33;4.50;;;;;;;;;;5016209;28;20306;-58
2022/01/09 09:06:39;;;;;;;14.77;4.83;;;;;;;;;;5006780;28;21167;-58
2022/01/09 09:09:05;;;;;;;10.90;4.37;;;;;;;;;;5004748;28;20680;-58
2022/01/09 09:11:31;;;;;;;14.10;4.47;;;;;;;;;;5002852;28;20228;-57
2022/01/09 09:13:57;;;;;;;17.13;4.73;;;;;;;;;;5009674;28;20233;-56
2022/01/09 09:16:23;;;;;;;15.03;4.13;;;;;;;;;;5018532;28;20309;-57
2022/01/09 09:18:49;;;;;;;13.43;3.90;;;;;;;;;;5023612;28;20244;-57
2022/01/09 09:21:16;;;;;;;12.23;4.10;;;;;;;;;;5012821;28;20241;-56
2022/01/09 09:23:42;;;;;;;14.93;4.77;;;;;;;;;;5027351;28;20263;-56
2022/01/09 09:26:09;;;;;;;14.90;4.83;;;;;;;;;;5021631;28;20318;-58
2022/01/09 09:28:35;;;;;;;11.37;4.20;;;;;;;;;;5025248;28;20651;-56
2022/01/09 09:31:01;;;;;;;18.03;4.73;;;;;;;;;;5023145;28;20235;-57
2022/01/09 09:33:27;;;;;;;13.23;4.17;;;;;;;;;;5022832;28;20217;-57
2022/01/09 09:35:53;;;;;;;10.53;4.40;;;;;;;;;;5021131;28;22274;-55
2022/01/09 09:38:19;;;;;;;12.20;4.43;;;;;;;;;;5021938;28;20702;-56
2022/01/09 09:40:45;;;;;;;15.97;5.17;;;;;;;;;;5030944;28;20220;-55
2022/01/09 09:43:11;;;;;;;11.17;4.17;;;;;;;;;;5019244;28;20275;-56
2022/01/09 09:45:37;;;;;;;16.03;4.30;;;;;;;;;;5015428;28;20732;-56
2022/01/09 09:48:03;;;;;;;10.20;4.30;;;;;;;;;;5025264;28;20966;-56
2022/01/09 09:50:29;;;;;;;11.53;4.30;;;;;;;;;;5019349;28;20391;-56
2022/01/09 09:52:55;;;;;;;14.70;4.07;;;;;;;;;;5017062;28;20637;-57
2022/01/09 09:55:21;;;;;;;10.90;3.90;;;;;;;;;;5014135;28;20331;-59
2022/01/09 09:57:47;;;;;;;9.80;4.60;;;;;;;;;;5024827;28;20368;-57
2022/01/09 10:00:15;;;;;;;10.60;4.00;;;;;;;;;;5029031;28;20237;-57
2022/01/09 10:02:41;;;;;;;14.67;3.77;;;;;;;;;;5030155;28;20315;-55
2022/01/09 10:05:07;;;;;;;9.33;3.70;;;;;;;;;;5027387;28;20246;-59
2022/01/09 10:07:33;;;;;;;9.37;3.60;;;;;;;;;;5026439;28;20314;-61
2022/01/09 10:10:04;;;;;;;14.53;4.00;;;;;;;;;;5026357;28;20748;-53
2022/01/09 10:12:31;;;;;;;11.93;3.63;;;;;;;;;;5023801;28;20976;-60
2022/01/09 10:14:57;;;;;;;14.07;4.17;;;;;;;;;;5010548;28;20396;-57
2022/01/09 10:17:24;;;;;;;15.43;3.70;;;;;;;;;;5024790;28;20285;-54
2022/01/09 10:19:56;;;;;;;9.87;3.80;;;;;;;;;;5024924;28;20324;-53
2022/01/09 10:22:23;;;;;;;13.93;4.10;;;;;;;;;;5012263;28;20248;-53
2022/01/09 10:24:49;;;;;;;11.50;3.43;;;;;;;;;;5015496;28;20250;-53
2022/01/09 10:27:28;;;;;;;12.43;3.43;;;;;;;;;;5010713;28;20239;-53
2022/01/09 10:29:54;;;;;;;8.43;3.53;;;;;;;;;;4989663;28;20622;-55
2022/01/09 10:32:20;;;;;;;15.37;3.70;;;;;;;;;;5000651;28;20351;-53
2022/01/09 10:35:09;;;;;;;8.87;3.60;;;;;;;;;;5002528;28;20239;-53
2022/01/09 10:37:36;;;;;;;9.10;3.67;;;;;;;;;;4995382;28;20242;-53
2022/01/09 10:40:03;;;;;;;6.53;3.17;;;;;;;;;;5010077;28;20225;-53
2022/01/09 10:42:29;;;;;;;10.07;3.60;;;;;;;;;;5011490;28;20772;-53
2022/01/09 10:44:55;;;;;;;8.03;3.40;;;;;;;;;;5013787;28;20236;-54
2022/01/09 10:47:21;;;;;;;10.43;3.70;;;;;;;;;;4999473;28;20233;-54
2022/01/09 10:49:51;;;;;;;8.77;3.40;;;;;;;;;;5005183;28;20248;-53
2022/01/09 10:52:19;;;;;;;12.77;3.70;;;;;;;;;;5006047;28;20311;-53
2022/01/09 10:54:49;;;;;;;8.07;3.00;;;;;;;;;;4998565;28;20319;-54
2022/01/09 10:57:16;;;;;;;9.57;3.30;;;;;;;;;;5007813;28;20232;-53
2022/01/09 10:59:42;;;;;;;9.17;3.53;;;;;;;;;;5007467;28;20595;-53
2022/01/09 11:02:10;;;;;;;11.60;3.90;;;;;;;;;;5004063;28;20298;-53
2022/01/09 11:04:36;;;;;;;12.67;3.50;;;;;;;;;;4998251;28;20327;-53
2022/01/09 11:07:02;;;;;;;13.03;4.23;;;;;;;;;;5003538;28;20232;-53
2022/01/09 11:09:29;;;;;;;9.30;4.03;;;;;;;;;;4999638;28;20771;-54
2022/01/09 11:11:55;;;;;;;10.60;3.33;;;;;;;;;;5010940;28;20227;-53
2022/01/09 11:14:22;;;;;;;8.33;3.50;;;;;;;;;;5005660;28;20884;-53
2022/01/09 11:16:54;;;;;;;11.87;3.83;;;;;;;;;;5014173;28;20331;-54
2022/01/09 11:19:23;;;;;;;10.60;3.20;;;;;;;;;;5006215;28;20220;-54
2022/01/09 11:21:50;;;;;;;11.23;4.10;;;;;;;;;;5010267;28;20247;-53
2022/01/09 11:24:22;;;;;;;8.20;3.30;;;;;;;;;;5006451;28;20594;-54
2022/01/09 11:27:15;;;;;;;12.80;3.67;;;;;;;;;;5014457;28;21171;-53
2022/01/09 11:29:42;;;;;;;7.33;3.37;;;;;;;;;;4996791;28;20698;-53
2022/01/09 11:32:26;;;;;;;6.90;3.20;;;;;;;;;;5013165;28;20235;-53
2022/01/09 11:35:10;;;;;;;9.70;3.80;;;;;;;;;;5007738;28;20589;-54
2022/01/09 11:37:36;;;;;;;8.90;3.90;;;;;;;;;;5006552;28;20372;-53
2022/01/09 11:40:03;;;;;;;6.17;3.57;;;;;;;;;;5002650;28;20231;-53
2022/01/09 11:42:29;;;;;;;9.33;3.70;;;;;;;;;;4992908;28;20260;-53
2022/01/09 11:44:55;;;;;;;9.37;3.80;;;;;;;;;;5005660;28;20244;-54
2022/01/09 11:47:21;;;;;;;8.13;3.30;;;;;;;;;;4997195;28;20870;-53
2022/01/09 11:49:53;;;;;;;7.27;3.10;;;;;;;;;;4985020;28;20247;-53
2022/01/09 11:52:24;;;;;;;8.90;3.57;;;;;;;;;;4981396;28;20241;-54
2022/01/09 11:54:54;;;;;;;9.83;3.30;;;;;;;;;;4994791;28;20237;-53
2022/01/09 11:57:46;;;;;;;7.40;2.90;;;;;;;;;;4997702;28;20402;-53
2022/01/09 12:00:29;;;;;;;9.20;3.83;;;;;;;;;;5002064;28;20294;-53
2022/01/09 12:02:55;;;;;;;8.23;3.70;;;;;;;;;;5003430;28;20732;-53
2022/01/09 12:05:21;;;;;;;11.30;4.13;;;;;;;;;;5008201;28;20654;-53
2022/01/09 12:07:48;;;;;;;8.70;3.57;;;;;;;;;;5007221;28;20253;-54
2022/01/09 12:10:23;;;;;;;13.03;4.43;;;;;;;;;;5003052;28;20761;-55
2022/01/09 12:12:49;;;;;;;11.80;3.73;;;;;;;;;;4996756;28;20356;-55
2022/01/09 12:15:15;;;;;;;19.93;4.87;;;;;;;;;;5001988;28;20232;-55
2022/01/09 12:17:42;;;;;;;16.17;4.57;;;;;;;;;;5001876;28;20232;-54
2022/01/09 12:20:23;;;;;;;12.73;4.17;;;;;;;;;;5001776;28;21993;-53
2022/01/09 12:22:49;;;;;;;14.00;4.07;;;;;;;;;;5000406;28;20250;-54
2022/01/09 12:25:25;;;;;;;13.00;4.13;;;;;;;;;;4990173;28;20245;-54
2022/01/09 12:27:54;;;;;;;12.17;3.80;;;;;;;;;;4999767;28;20243;-54
2022/01/09 12:30:33;;;;;;;14.50;3.73;;;;;;;;;;5001150;28;20235;-54
2022/01/09 12:33:05;;;;;;;9.17;3.73;;;;;;;;;;5001365;28;20236;-55
2022/01/09 12:35:31;;;;;;;13.57;4.10;;;;;;;;;;5008463;28;20279;-54
2022/01/09 12:38:00;;;;;;;9.60;3.87;;;;;;;;;;5010380;28;20761;-54
2022/01/09 12:40:26;;;;;;;12.17;4.10;;;;;;;;;;5006322;28;20271;-54
2022/01/09 12:42:52;;;;;;;11.60;3.80;;;;;;;;;;5005096;28;20320;-54
2022/01/09 12:45:28;;;;;;;12.67;3.87;;;;;;;;;;5008273;28;20236;-55
2022/01/09 12:47:55;;;;;;;14.63;4.03;;;;;;;;;;5008662;28;20232;-54
2022/01/09 12:50:27;;;;;;;9.50;4.03;;;;;;;;;;5003745;28;20236;-54
2022/01/09 12:53:10;;;;;;;16.13;4.80;;;;;;;;;;5006914;28;20243;-53
2022/01/09 12:55:36;;;;;;;11.47;4.33;;;;;;;;;;5014174;28;20597;-54
2022/01/09 12:58:02;;;;;;;13.70;4.27;;;;;;;;;;5005262;28;20263;-55
2022/01/09 13:00:29;;;;;;;10.43;4.30;;;;;;;;;;5004176;28;20235;-54
2022/01/09 13:02:55;;;;;;;18.23;4.67;;;;;;;;;;5001114;28;20609;-54
2022/01/09 13:05:22;;;;;;;12.43;4.03;;;;;;;;;;5020052;28;20236;-54
2022/01/09 13:07:55;;;;;;;14.00;5.50;;;;;;;;;;5001883;28;20290;-55
2022/01/09 13:10:27;;;;;;;12.20;4.47;;;;;;;;;;5009848;28;20228;-55
2022/01/09 13:13:02;;;;;;;12.23;4.70;;;;;;;;;;5014307;28;20242;-55
2022/01/09 13:15:32;;;;;;;12.47;4.00;;;;;;;;;;5009976;28;20736;-55
2022/01/09 13:17:58;;;;;;;10.87;4.00;;;;;;;;;;5008977;28;20247;-55
2022/01/09 13:20:24;;;;;;;12.60;4.20;;;;;;;;;;5013785;28;20239;-55
2022/01/09 13:23:06;;;;;;;10.00;3.83;;;;;;;;;;5003797;28;20685;-55
2022/01/09 13:25:42;;;;;;;10.30;4.00;;;;;;;;;;4991507;28;20276;-55
2022/01/09 13:28:16;;;;;;;11.77;4.07;;;;;;;;;;5013392;28;20345;-55
2022/01/09 13:30:42;;;;;;;14.13;4.07;;;;;;;;;;5014507;28;20782;-55
2022/01/09 13:33:08;;;;;;;10.03;3.83;;;;;;;;;;5014886;28;20455;-55
2022/01/09 13:35:34;;;;;;;13.50;4.13;;;;;;;;;;5013071;28;20259;-54
2022/01/09 13:38:00;;;;;;;11.07;4.13;;;;;;;;;;5018854;28;20238;-55
2022/01/09 13:40:26;;;;;;;10.90;4.00;;;;;;;;;;5017566;28;20256;-55
2022/01/09 13:42:52;;;;;;;9.53;4.80;;;;;;;;;;5012856;28;20278;-54
2022/01/09 13:45:21;;;;;;;11.20;4.30;;;;;;;;;;5020086;28;20294;-55
2022/01/09 13:47:51;;;;;;;16.90;4.53;;;;;;;;;;5020292;28;20247;-55
2022/01/09 13:50:35;;;;;;;11.10;4.47;;;;;;;;;;5011405;28;20302;-54
2022/01/09 13:53:08;;;;;;;13.33;4.33;;;;;;;;;;5005222;28;20232;-54
2022/01/09 13:55:34;;;;;;;9.67;3.60;;;;;;;;;;5000370;28;20613;-55
2022/01/09 13:58:03;;;;;;;11.20;3.83;;;;;;;;;;5000475;28;20231;-55
2022/01/09 14:00:29;;;;;;;12.50;4.13;;;;;;;;;;5008282;28;20285;-55
2022/01/09 14:02:58;;;;;;;8.10;3.57;;;;;;;;;;4992210;28;20797;-55
2022/01/09 14:05:24;;;;;;;12.33;4.20;;;;;;;;;;5003702;28;20976;-55
2022/01/09 14:07:54;;;;;;;10.30;3.80;;;;;;;;;;4973202;28;20959;-55
2022/01/09 14:10:20;;;;;;;13.87;4.53;;;;;;;;;;4984759;28;20266;-55
2022/01/09 14:12:46;;;;;;;12.47;4.43;;;;;;;;;;5012054;28;20229;-55
2022/01/09 14:15:13;;;;;;;13.93;4.13;;;;;;;;;;5016958;28;20240;-55
2022/01/09 14:17:43;;;;;;;7.87;4.03;;;;;;;;;;5018353;28;20477;-55
2022/01/09 14:20:16;;;;;;;9.73;4.30;;;;;;;;;;5008360;28;20616;-54
2022/01/09 14:22:48;;;;;;;12.53;4.47;;;;;;;;;;5006756;28;20285;-55
2022/01/09 14:25:22;;;;;;;13.83;4.10;;;;;;;;;;4999536;28;20244;-55
2022/01/09 14:27:48;;;;;;;10.23;4.20;;;;;;;;;;4978021;28;20345;-54
2022/01/09 14:30:20;;;;;;;12.40;4.17;;;;;;;;;;5001536;28;20342;-55
2022/01/09 14:32:47;;;;;;;12.03;4.60;;;;;;;;;;4991677;28;20362;-54